• Join FlightAware (Why Join?)
  • Login
  • US Flag 
01:18AM EDT


 

Airport Tracker/Info


-or-


 

Live Flight TrackerFlight Track Log ✈ AAL971 ✈ 07-Oct-2013 ✈ MNMG / MGA - KMIA

Flight Track Log - Related Links

Times and Time Zones

All times are in EDT time to prevent confusion due to time zone crossing. See the AAL971 flight status page for this flight to view local times or setup timezone preferences in your user account.

Time Position Orientation Groundspeed Altitude Reporting Facility
EDT Latitude Longitude Course Direction KTS MPH feet Rate Location/Type
02:14PM 12.4540 -86.0437 22° Northeast  Level Estimated
02:15PM 12.5576 -86.0007 22° Northeast  Level FlightAware Approximate
02:16PM 12.6612 -85.9577 22° Northeast  Level FlightAware Approximate
02:17PM 12.7653 -85.9161 21° North  Level Estimated
02:18PM 12.8690 -85.8732 22° Northeast  Level FlightAware Approximate
02:19PM 12.9732 -85.8316 18° North  Level Estimated
02:20PM 13.0781 -85.7921 20° North  Level FlightAware Approximate
02:21PM 13.1822 -85.7503 23° Northeast  Level Estimated
02:22PM 13.2863 -85.7085 26° Northeast  Level Estimated
02:23PM 13.3904 -85.6667 20° North  Level Estimated
02:24PM 13.4949 -85.6258 21° North  Level FlightAware Approximate
02:25PM 13.5993 -85.5848 21° North  Level FlightAware Approximate
02:26PM 13.7034 -85.5429 21° North  Level Estimated
02:27PM 13.8076 -85.5013 21° North  Level FlightAware Approximate
02:28PM 13.9119 -85.4597 21° North  Level FlightAware Approximate
02:29PM 14.0161 -85.4181 21° North  Level FlightAware Approximate
02:30PM 14.1203 -85.3764 21° North  Level FlightAware Approximate
02:31PM 14.2245 -85.3347 21° North  Level FlightAware Approximate
02:32PM 14.3287 -85.2930 21° North  Level FlightAware Approximate
02:33PM 14.4329 -85.2512 21° North  Level FlightAware Approximate
02:34PM 14.5387 -85.2088 21° North  Level FlightAware Approximate
02:35PM 14.6445 -85.1663 21° North  Level FlightAware Approximate
02:36PM 14.7500 -85.1233 21° North  Level Estimated
02:37PM 14.8559 -85.0811 21° North  Level FlightAware Approximate
02:38PM 14.9618 -85.0389 21° North  Level FlightAware Approximate
02:39PM 15.0677 -84.9966 21° North  Level FlightAware Approximate
02:40PM 15.1735 -84.9543 21° North  Level FlightAware Approximate
02:41PM 15.2794 -84.9119 21° North  Level FlightAware Approximate
02:42PM 15.3852 -84.8696 21° North  Level FlightAware Approximate
02:43PM 15.4911 -84.8271 21° North  Level FlightAware Approximate
02:44PM 15.5969 -84.7846 21° North  Level FlightAware Approximate
02:45PM 15.7027 -84.7421 21° North  Level FlightAware Approximate
02:46PM 15.8085 -84.6995 21° North  Level FlightAware Approximate
02:47PM 15.9144 -84.6569 21° North  Level FlightAware Approximate
02:48PM 16.0202 -84.6143 21° North  Level FlightAware Approximate
02:49PM 16.1259 -84.5716 21° North  Level FlightAware Approximate
02:50PM 16.2317 -84.5288 21° North  Level FlightAware Approximate
02:51PM 16.3375 -84.4860 21° North  Level FlightAware Approximate
02:52PM 16.4433 -84.4432 21° North  Level FlightAware Approximate
02:53PM 16.5490 -84.4003 21° North  Level FlightAware Approximate
02:54PM 16.6548 -84.3574 21° North  Level FlightAware Approximate
02:55PM 16.7605 -84.3144 21° North  Level FlightAware Approximate
02:56PM 16.8662 -84.2713 21° North  Level FlightAware Approximate
02:57PM 16.9720 -84.2283 21° North  Level FlightAware Approximate
02:58PM 17.0777 -84.1851 21° North  Level FlightAware Approximate
02:59PM 17.1834 -84.1420 21° North  Level FlightAware Approximate
03:00PM 17.2891 -84.0987 21° North  Level FlightAware Approximate
03:01PM 17.3948 -84.0555 21° North  Level FlightAware Approximate
03:02PM 17.5004 -84.0122 21° North  Level FlightAware Approximate
03:03PM 17.6061 -83.9688 21° North  Level FlightAware Approximate
03:04PM 17.7118 -83.9253 21° North  Level FlightAware Approximate
03:05PM 17.8174 -83.8819 21° North  Level FlightAware Approximate
03:06PM 17.9231 -83.8383 21° North  Level FlightAware Approximate
03:07PM 18.0287 -83.7947 21° North  Level FlightAware Approximate
03:08PM 18.1343 -83.7511 21° North  Level FlightAware Approximate
03:09PM 18.2399 -83.7074 21° North  Level FlightAware Approximate
03:10PM 18.3455 -83.6637 21° North  Level FlightAware Approximate
03:11PM 18.4511 -83.6199 21° North  Level FlightAware Approximate
03:12PM 18.5567 -83.5760 21° North  Level FlightAware Approximate
03:13PM 18.6623 -83.5322 22° Northeast  Level FlightAware Approximate
03:14PM 18.7678 -83.4882 22° Northeast  Level FlightAware Approximate
03:15PM 18.8734 -83.4442 22° Northeast  Level FlightAware Approximate
03:16PM 18.9789 -83.4001 22° Northeast  Level FlightAware Approximate
03:17PM 19.0844 -83.3560 22° Northeast  Level FlightAware Approximate
03:18PM 19.1900 -83.3118 22° Northeast  Level FlightAware Approximate
03:19PM 19.2955 -83.2676 22° Northeast  Level FlightAware Approximate
03:20PM 19.4010 -83.2233 22° Northeast  Level FlightAware Approximate
03:21PM 19.5059 -83.1774 22° Northeast  Level Estimated
03:22PM 19.6113 -83.1329 22° Northeast  Level FlightAware Approximate
03:23PM 19.7167 -83.0884 22° Northeast  Level FlightAware Approximate
03:24PM 19.8221 -83.0438 22° Northeast  Level FlightAware Approximate
03:25PM 19.9270 -82.9976 22° Northeast  Level Estimated
03:26PM 20.0322 -82.9524 22° Northeast  Level FlightAware Approximate
03:27PM 20.1374 -82.9071 22° Northeast  Level FlightAware Approximate
03:28PM 20.2426 -82.8618 22° Northeast  Level FlightAware Approximate
03:29PM 20.3454 -82.8174 22° Northeast  Level FlightAware Approximate
03:30PM 20.4483 -82.7729 22° Northeast  Level FlightAware Approximate
03:31PM 20.5511 -82.7284 22° Northeast  Level FlightAware Approximate
03:32PM 20.6539 -82.6839 22° Northeast  Level FlightAware Approximate
03:33PM 20.7567 -82.6393 22° Northeast  Level FlightAware Approximate
03:34PM 20.8595 -82.5946 22° Northeast  Level FlightAware Approximate
03:35PM 20.9622 -82.5498 22° Northeast  Level FlightAware Approximate
03:36PM 21.0650 -82.5050 22° Northeast  Level FlightAware Approximate
03:37PM 21.1678 -82.4602 22° Northeast  Level FlightAware Approximate
03:38PM 21.2705 -82.4152 22° Northeast  Level FlightAware Approximate
03:39PM 21.3732 -82.3702 22° Northeast  Level FlightAware Approximate
03:40PM 21.4760 -82.3252 22° Northeast  Level FlightAware Approximate
03:41PM 21.5786 -82.2801 22° Northeast  Level FlightAware Approximate
03:42PM 21.6813 -82.2349 22° Northeast  Level FlightAware Approximate
03:43PM 21.7840 -82.1896 22° Northeast  Level FlightAware Approximate
03:44PM 21.8867 -82.1443 22° Northeast  Level FlightAware Approximate
03:45PM 21.9893 -82.0989 22° Northeast  Level FlightAware Approximate
03:46PM 22.0920 -82.0535 22° Northeast  Level FlightAware Approximate
03:47PM 22.1946 -82.0080 22° Northeast  Level FlightAware Approximate
03:48PM 22.2972 -81.9624 22° Northeast  Level FlightAware Approximate
03:49PM 22.3998 -81.9167 22° Northeast  Level FlightAware Approximate
03:50PM 22.5024 -81.8710 22° Northeast  Level FlightAware Approximate
03:50PM 22.7190 -81.5130 22° Northeast 429 494 36,000  Level FlightAware
03:51PM 22.6050 -81.8252 22° Northeast  Level FlightAware Approximate
03:51PM 22.7730 -81.4850 26° Northeast 428 493 36,000  Level FlightAware
03:51PM 22.8390 -81.4500 26° Northeast 434 499 36,000  Level FlightAware
03:52PM 22.8970 -81.4190 26° Northeast 434 499 36,000  Level FlightAware
03:53PM 22.9650 -81.3860 24° Northeast 431 496 36,000  Level FlightAware
03:53PM 23.0410 -81.3600 17° North 421 484 36,000  Level FlightAware
03:54PM 23.1040 -81.3440 13° North 421 484 36,000 -240 Level FlightAware
03:54PM 23.1710 -81.3350 North 425 489 35,800 -720 Descending FlightAware
03:55PM 23.2480 -81.3290 North 433 498 35,200 -960 Descending FlightAware
03:56PM 23.3220 -81.3260 North 436 502 34,600 -1,020 Descending FlightAware
03:56PM 23.3770 -81.3230 North 438 504 34,100 -540 Descending FlightAware
03:57PM 23.4650 -81.3180 North 431 496 34,000 -120 Descending FlightAware
03:57PM 23.5250 -81.3140 North 431 496 34,000  Level FlightAware
03:58PM 23.5960 -81.3100 North 431 496 34,000  Level FlightAware
03:58PM 23.6680 -81.2980 North 441 507 34,000  Level FlightAware
03:59PM 23.7380 -81.2810 13° North 432 497 34,000  Level FlightAware
04:00PM 23.8070 -81.2640 13° North 441 507 34,000  Level FlightAware
04:00PM 23.8760 -81.2470 13° North 441 507 34,000  Level FlightAware
04:01PM 23.9570 -81.2270 13° North 442 509 34,000  Level FlightAware
04:01PM 24.0190 -81.2140 11° North 440 506 34,000 -300 Level FlightAware
04:02PM 24.0890 -81.2000 10° North 440 506 33,700 -720 Descending FlightAware
04:02PM 24.1570 -81.1860 11° North 440 506 33,200 -960 Descending FlightAware
04:03PM 24.2300 -81.1710 11° North 443 510 32,600 -960 Descending FlightAware
04:04PM 24.2990 -81.1580 10° North 445 512 32,100 -960 Descending FlightAware
04:04PM 24.3820 -81.1420 10° North 444 511 31,400 -1,080 Descending FlightAware
04:05PM 24.4410 -81.1300 10° North 441 507 30,900 -1,020 Descending FlightAware
04:05PM 24.5120 -81.1150 11° North 428 493 30,300 -1,080 Descending FlightAware
04:06PM 24.5820 -81.1010 10° North 425 489 29,700 -1,080 Descending FlightAware
04:07PM 24.6520 -81.0880 10° North 427 491 29,100 -1,080 Descending FlightAware
04:07PM 24.7200 -81.0740 11° North 428 493 28,500 -960 Descending FlightAware
04:08PM 24.7880 -81.0600 11° North 424 488 28,000 -1,500 Descending FlightAware
04:08PM 24.8590 -81.0460 10° North 424 488 26,800 -2,100 Descending FlightAware
04:09PM 24.9230 -81.0330 10° North 409 471 25,600 -2,100 Descending FlightAware
04:09PM 24.9910 -81.0190 11° North 409 471 24,400 -2,040 Descending FlightAware
04:10PM 25.0570 -81.0060 10° North 394 453 23,200 -2,160 Descending FlightAware
04:11PM 25.1110 -80.9960 10° North 396 456 22,100 -2,040 Descending FlightAware
04:11PM 25.2030 -80.9770 11° North 375 432 20,400 -1,920 Descending FlightAware
04:12PM 25.2620 -80.9580 16° North 382 440 19,300 -1,920 Descending FlightAware
04:13PM 25.3280 -80.9290 22° Northeast 369 425 18,000 -1,920 Descending FlightAware
04:13PM 25.3840 -80.9050 21° North 362 417 16,900 -1,980 Descending FlightAware
04:14PM 25.4400 -80.8800 22° Northeast 366 421 15,700 -1,980 Descending FlightAware
04:14PM 25.4940 -80.8570 21° North 360 414 14,600 -1,380 Descending FlightAware
04:15PM 25.5490 -80.8330 21° North 349 402 14,100 -840 Descending FlightAware
04:15PM 25.5920 -80.8100 26° Northeast 335 386 13,700 -1,200 Descending FlightAware
04:16PM 25.6150 -80.7860 43° Northeast 345 397 13,100 -1,860 Descending FlightAware
04:16PM 25.6520 -80.7400 48° Northeast 340 391 12,000 -1,680 Descending FlightAware
04:17PM 25.6870 -80.6920 51° Northeast 334 384 11,200 -1,200 Descending FlightAware
04:17PM 25.6940 -80.6670 73° East 328 377 11,000 -1,080 Descending FlightAware
04:18PM 25.6970 -80.6170 86° East 319 367 10,400 -1,140 Descending FlightAware
04:18PM 25.7020 -80.5780 82° East 313 360 10,000 -960 Descending FlightAware
04:18PM 25.7070 -80.5460 80° East 305 351 9,700 -900 Descending FlightAware
04:19PM 25.7100 -80.5150 84° East 300 345 9,400 -1,500 Descending FlightAware
04:19PM 25.7070 -80.4780 95° East 303 349 8,600 -1,680 Descending FlightAware
04:19PM 25.7060 -80.4540 93° East 301 346 8,300 -1,020 Descending FlightAware
04:20PM 25.7050 -80.4310 93° East 300 345 8,100 -360 Descending FlightAware
04:20PM 25.7060 -80.3990 88° East 295 339 8,100 -600 Level FlightAware
04:20PM 25.7080 -80.3690 86° East 289 333 7,700 -1,260 Descending FlightAware
04:21PM 25.7090 -80.3410 88° East 286 329 7,300 -1,500 Descending FlightAware
04:21PM 25.7100 -80.3080 88° East 284 327 6,700 -1,500 Descending FlightAware
04:22PM 25.7050 -80.2720 99° East 274 315 6,100 -1,440 Descending FlightAware
04:22PM 25.6970 -80.2450 108° East 272 313 5,600 -1,500 Descending FlightAware
04:22PM 25.6920 -80.2350 119° Southeast 271 312 5,400 -1,140 Descending FlightAware
04:22PM 25.6820 -80.2190 125° Southeast 265 305 5,200 -840 Descending FlightAware
04:22PM 25.6690 -80.2040 134° Southeast 250 288 5,000 -840 Descending FlightAware
04:23PM 25.6510 -80.1900 145° Southeast 245 282 4,700 -900 Descending FlightAware
04:23PM 25.6450 -80.1820 130° Southeast 249 287 4,600 -540 Descending FlightAware
04:23PM 25.6430 -80.1770 114° Southeast 250 288 4,600 -1,020 Level FlightAware
04:23PM 25.6410 -80.1670 103° East 250 288 4,400 -1,500 Descending FlightAware
04:24PM 25.6510 -80.1420 66° East 255 293 3,900 -1,440 Descending FlightAware
04:24PM 25.6540 -80.1400 31° Northeast 254 292 3,800 -1,320 Descending FlightAware
04:24PM 25.6660 -80.1350 21° North 247 284 3,600 -1,680 Descending FlightAware
04:24PM 25.6920 -80.1440 343° North 231 266 2,800 -1,680 Descending FlightAware
04:24PM 25.6960 -80.1480 318° Northwest 227 261 2,700 -900 Descending FlightAware
04:25PM 25.7120 -80.1650 316° Northwest 210 242 2,400 -840 Descending FlightAware
04:25PM 25.7230 -80.1760 318° Northwest 203 234 2,200 -960 Descending FlightAware
04:25PM 25.7380 -80.1930 314° West 191 220 1,800 -960 Descending FlightAware
04:26PM 25.7480 -80.2050 313° West 184 212 1,600 -840 Descending FlightAware
04:26PM 25.7550 -80.2150 308° West 164 189 1,400 -840 Descending FlightAware
04:26PM 25.7620 -80.2300 297° West 146 168 1,100 -900 Descending FlightAware
04:26PM 25.7680 -80.2420 299° West 146 168 800 -840 Descending FlightAware
04:27PM 25.7750 -80.2540 303° West 141 162 600 -720 Descending FlightAware
04:27PM 25.7810 -80.2670 297° West 147 169 400 -720 Descending FlightAware
04:28PM 25.7900 -80.2840 300° West 152 175 100 -720 Descending FlightAware
04:28PM 25.7950 -80.2950 297° West 74 85 -300 Descending FlightAware